createdAt,value
2023-02-11T00:00:05.964Z,21.25
2023-02-11T00:00:18.239Z,22.13
2023-02-11T00:00:30.210Z,21.70
2023-02-11T00:00:42.771Z,20.70
2023-02-11T00:00:54.702Z,20.38
2023-02-11T00:01:11.918Z,21.67
2023-02-11T00:01:29.716Z,22.52
2023-02-11T00:01:41.701Z,22.23
2023-02-11T00:01:53.707Z,22.58
2023-02-11T00:02:06.772Z,23.08
2023-02-11T00:02:18.774Z,22.92
2023-02-11T00:02:32.430Z,22.48
2023-02-11T00:02:46.846Z,21.98
2023-02-11T00:02:59.930Z,22.05
2023-02-11T00:03:14.551Z,21.85
2023-02-11T00:03:26.720Z,22.10
2023-02-11T00:03:38.897Z,22.35
2023-02-11T00:03:51.450Z,22.63
2023-02-11T00:04:04.655Z,22.42
2023-02-11T00:04:16.874Z,22.08
2023-02-11T00:04:28.817Z,22.58
2023-02-11T00:04:40.728Z,22.55
2023-02-11T00:04:52.788Z,22.58
2023-02-11T00:05:05.359Z,21.60
2023-02-11T00:05:19.905Z,21.73
2023-02-11T00:05:31.895Z,22.20
2023-02-11T00:05:43.895Z,22.25
2023-02-11T00:06:04.187Z,21.40
2023-02-11T00:06:16.702Z,20.38
2023-02-11T00:06:30.563Z,20.75
2023-02-11T00:06:42.899Z,21.02
2023-02-11T00:06:55.354Z,21.88
2023-02-11T00:07:07.535Z,22.88
2023-02-11T00:07:19.524Z,22.83
2023-02-11T00:07:32.569Z,22.77
2023-02-11T00:07:44.710Z,21.67
2023-02-11T00:07:57.131Z,20.90
2023-02-11T00:08:09.112Z,20.95
2023-02-11T00:08:21.080Z,21.30
2023-02-11T00:08:36.277Z,21.60
2023-02-11T00:08:48.286Z,21.80
2023-02-11T00:09:00.889Z,21.67
2023-02-11T00:09:12.840Z,21.63
2023-02-11T00:09:24.766Z,21.55
2023-02-11T00:09:39.152Z,22.05
2023-02-11T00:09:51.248Z,22.55
2023-02-11T00:10:07.773Z,22.15
2023-02-11T00:10:19.674Z,22.17
2023-02-11T00:10:31.676Z,22.05
2023-02-11T00:10:46.294Z,21.13
2023-02-11T00:10:58.828Z,20.73
2023-02-11T00:11:18.757Z,21.42
2023-02-11T00:11:30.852Z,22.63
2023-02-11T00:11:42.874Z,22.08
2023-02-11T00:11:54.805Z,22.08
2023-02-11T00:12:06.823Z,20.58
2023-02-11T00:12:19.593Z,20.20
2023-02-11T00:12:31.622Z,19.35
2023-02-11T00:12:43.653Z,19.92
2023-02-11T00:12:55.960Z,20.13
2023-02-11T00:13:07.904Z,20.58
2023-02-11T00:13:19.891Z,20.75
2023-02-11T00:13:31.883Z,20.83
2023-02-11T00:13:45.055Z,21.23
2023-02-11T00:14:02.299Z,20.98
2023-02-11T00:14:14.291Z,20.40
2023-02-11T00:14:26.699Z,20.73
2023-02-11T00:14:38.633Z,21.27
2023-02-11T00:14:53.142Z,21.02
2023-02-11T00:15:07.636Z,20.90
2023-02-11T00:15:21.075Z,20.48
2023-02-11T00:15:33.016Z,19.52
2023-02-11T00:15:44.972Z,19.23
2023-02-11T00:15:57.166Z,19.08
2023-02-11T00:16:12.373Z,19.58
2023-02-11T00:16:24.391Z,20.83
2023-02-11T00:16:36.532Z,20.80
2023-02-11T00:16:48.529Z,20.63
2023-02-11T00:17:00.648Z,20.77
2023-02-11T00:17:12.840Z,20.35
2023-02-11T00:17:24.818Z,19.25
2023-02-11T00:17:37.036Z,19.55
2023-02-11T00:17:48.994Z,19.98
2023-02-11T00:18:00.952Z,19.48
2023-02-11T00:18:12.896Z,19.05
2023-02-11T00:18:24.812Z,19.08
2023-02-11T00:18:38.345Z,19.77
2023-02-11T00:18:52.885Z,20.50
2023-02-11T00:19:06.578Z,20.80
2023-02-11T00:19:18.586Z,21.58
2023-02-11T00:19:30.656Z,21.42
2023-02-11T00:19:42.658Z,20.88
2023-02-11T00:19:54.690Z,20.25
2023-02-11T00:20:08.305Z,20.15
2023-02-11T00:20:20.328Z,20.60
2023-02-11T00:20:32.265Z,20.40
2023-02-11T00:20:44.355Z,20.15
2023-02-11T00:20:56.328Z,19.65
2023-02-11T00:21:16.209Z,19.67
2023-02-11T00:21:29.309Z,19.98
2023-02-11T00:21:41.392Z,20.17
2023-02-11T00:21:53.471Z,20.52
2023-02-11T00:22:05.938Z,21.25
2023-02-11T00:22:18.554Z,21.02
2023-02-11T00:22:30.796Z,20.65
2023-02-11T00:22:42.786Z,20.13
2023-02-11T00:22:54.725Z,20.60
2023-02-11T00:23:06.863Z,20.85
2023-02-11T00:23:19.038Z,20.48
2023-02-11T00:23:31.091Z,20.15
2023-02-11T00:23:43.667Z,19.90
2023-02-11T00:23:57.169Z,20.23
2023-02-11T00:24:09.154Z,20.67
2023-02-11T00:24:21.088Z,20.30
2023-02-11T00:24:33.113Z,20.60
2023-02-11T00:24:45.045Z,21.23
2023-02-11T00:24:57.156Z,21.02
2023-02-11T00:25:09.205Z,20.63
2023-02-11T00:25:21.260Z,20.55
2023-02-11T00:25:33.316Z,20.00
2023-02-11T00:25:45.959Z,20.13
2023-02-11T00:25:57.874Z,20.60
2023-02-11T00:26:19.021Z,21.05
2023-02-11T00:26:33.958Z,21.17
2023-02-11T00:26:45.881Z,20.73
2023-02-11T00:26:57.935Z,20.33
2023-02-11T00:27:09.901Z,20.85
2023-02-11T00:27:21.830Z,21.70
2023-02-11T00:27:33.834Z,21.38
2023-02-11T00:27:45.807Z,20.77
2023-02-11T00:27:57.789Z,20.88
2023-02-11T00:28:10.417Z,21.20
2023-02-11T00:28:22.366Z,20.58
2023-02-11T00:28:34.405Z,20.70
2023-02-11T00:28:47.090Z,20.27
2023-02-11T00:29:00.705Z,20.20
2023-02-11T00:29:12.602Z,20.52
2023-02-11T00:29:24.658Z,21.58
2023-02-11T00:29:37.662Z,21.95
2023-02-11T00:29:49.626Z,22.42
2023-02-11T00:30:02.563Z,22.13
2023-02-11T00:30:14.546Z,21.85
2023-02-11T00:30:26.572Z,21.65
2023-02-11T00:30:38.769Z,21.10
2023-02-11T00:31:01.618Z,20.77
2023-02-11T00:31:15.498Z,21.00
2023-02-11T00:31:29.559Z,20.60
2023-02-11T00:31:41.837Z,20.85
2023-02-11T00:31:54.031Z,20.23
2023-02-11T00:32:06.552Z,19.25
2023-02-11T00:32:18.580Z,19.15
2023-02-11T00:32:30.544Z,20.15
2023-02-11T00:32:42.605Z,20.20
2023-02-11T00:32:54.682Z,20.50
2023-02-11T00:33:09.741Z,20.55
2023-02-11T00:33:22.216Z,20.35
2023-02-11T00:33:34.169Z,20.55
2023-02-11T00:33:46.436Z,20.98
2023-02-11T00:33:58.419Z,21.35
2023-02-11T00:34:10.372Z,21.60
2023-02-11T00:34:22.296Z,20.85
2023-02-11T00:34:36.054Z,20.10
2023-02-11T00:34:48.124Z,20.73
2023-02-11T00:35:00.059Z,20.77
2023-02-11T00:35:12.083Z,20.23
2023-02-11T00:35:24.002Z,19.63
2023-02-11T00:35:38.573Z,18.67
2023-02-11T00:35:50.820Z,19.08
2023-02-11T00:36:08.367Z,19.92
2023-02-11T00:36:25.968Z,20.75
2023-02-11T00:36:37.877Z,22.23
2023-02-11T00:36:52.433Z,23.20
2023-02-11T00:37:05.352Z,22.85
2023-02-11T00:37:17.272Z,23.05
2023-02-11T00:37:29.295Z,22.98
2023-02-11T00:37:41.276Z,22.08
2023-02-11T00:37:54.302Z,21.95
2023-02-11T00:38:07.424Z,21.90
2023-02-11T00:38:19.461Z,21.55
2023-02-11T00:38:31.392Z,21.85
2023-02-11T00:38:44.343Z,21.60
2023-02-11T00:38:57.373Z,21.15
2023-02-11T00:39:09.384Z,20.73
2023-02-11T00:39:21.352Z,21.45
2023-02-11T00:39:33.311Z,22.25
2023-02-11T00:39:45.220Z,22.10
2023-02-11T00:39:57.175Z,22.23
2023-02-11T00:40:09.721Z,22.33
2023-02-11T00:40:22.554Z,22.93
2023-02-11T00:40:34.515Z,22.67
2023-02-11T00:40:46.441Z,23.15
2023-02-11T00:40:58.427Z,22.92
2023-02-11T00:41:11.653Z,23.08
2023-02-11T00:41:23.738Z,23.40
2023-02-11T00:41:35.872Z,23.63
2023-02-11T00:41:47.852Z,22.75
2023-02-11T00:41:59.806Z,22.05
2023-02-11T00:42:15.035Z,21.77
2023-02-11T00:42:26.990Z,21.85
2023-02-11T00:42:38.927Z,21.80
2023-02-11T00:42:50.867Z,22.23
2023-02-11T00:43:02.876Z,21.90
2023-02-11T00:43:14.777Z,22.30
2023-02-11T00:43:26.789Z,22.90
2023-02-11T00:43:39.339Z,22.73
2023-02-11T00:43:54.397Z,22.23
2023-02-11T00:44:06.308Z,22.13
2023-02-11T00:44:21.349Z,21.55
2023-02-11T00:44:33.256Z,20.73
2023-02-11T00:44:45.194Z,21.58
2023-02-11T00:44:57.425Z,22.38
2023-02-11T00:45:09.899Z,22.90
2023-02-11T00:45:21.918Z,22.75
2023-02-11T00:45:33.816Z,22.65
2023-02-11T00:45:45.868Z,22.85
2023-02-11T00:45:57.833Z,22.37
2023-02-11T00:46:10.066Z,22.02
2023-02-11T00:46:22.677Z,21.90
2023-02-11T00:46:35.045Z,22.05
2023-02-11T00:46:47.139Z,22.05
2023-02-11T00:46:59.085Z,21.85
2023-02-11T00:47:11.197Z,21.85
2023-02-11T00:47:23.415Z,22.02
2023-02-11T00:47:35.879Z,22.55
2023-02-11T00:47:48.087Z,22.95
2023-02-11T00:48:00.010Z,23.27
2023-02-11T00:48:11.909Z,22.80
2023-02-11T00:48:23.834Z,22.00
2023-02-11T00:48:36.071Z,21.90
2023-02-11T00:48:48.865Z,22.13
2023-02-11T00:49:00.818Z,22.55
2023-02-11T00:49:12.745Z,22.15
2023-02-11T00:49:25.299Z,22.38
2023-02-11T00:49:39.572Z,22.60
2023-02-11T00:49:51.510Z,22.48
2023-02-11T00:50:05.479Z,21.92
2023-02-11T00:50:17.438Z,21.52
2023-02-11T00:50:29.388Z,21.33
2023-02-11T00:50:43.767Z,22.02
2023-02-11T00:50:55.685Z,22.52
2023-02-11T00:51:08.241Z,22.75
2023-02-11T00:51:23.202Z,22.55
2023-02-11T00:51:35.202Z,22.83
2023-02-11T00:51:47.197Z,21.98
2023-02-11T00:51:59.151Z,21.55
2023-02-11T00:52:11.149Z,20.48
2023-02-11T00:52:23.082Z,20.90
2023-02-11T00:52:35.303Z,21.10
2023-02-11T00:52:47.233Z,21.33
2023-02-11T00:52:59.257Z,21.08
2023-02-11T00:53:11.241Z,21.00
2023-02-11T00:53:23.151Z,20.15
2023-02-11T00:53:35.837Z,19.95
2023-02-11T00:53:47.765Z,20.13
2023-02-11T00:53:59.747Z,20.52
2023-02-11T00:54:11.758Z,20.95
2023-02-11T00:54:23.823Z,20.73
2023-02-11T00:54:35.804Z,20.70
2023-02-11T00:54:47.746Z,20.73
2023-02-11T00:54:59.762Z,20.13
2023-02-11T00:55:11.770Z,19.98
2023-02-11T00:55:23.756Z,20.33
2023-02-11T00:55:35.770Z,20.13
2023-02-11T00:55:47.909Z,19.85
2023-02-11T00:56:01.174Z,18.83
2023-02-11T00:56:13.198Z,18.42
2023-02-11T00:56:25.290Z,18.50
2023-02-11T00:56:37.328Z,19.33
2023-02-11T00:56:49.838Z,20.25
2023-02-11T00:57:01.875Z,20.33
2023-02-11T00:57:13.853Z,20.15
2023-02-11T00:57:25.875Z,19.58
2023-02-11T00:57:37.897Z,19.27
2023-02-11T00:57:49.953Z,19.25
2023-02-11T00:58:02.009Z,19.73
2023-02-11T00:58:14.188Z,19.83
2023-02-11T00:58:26.352Z,19.42
2023-02-11T00:58:38.531Z,19.75
2023-02-11T00:58:50.797Z,19.25
2023-02-11T00:59:02.729Z,18.40
2023-02-11T00:59:14.737Z,17.65
2023-02-11T00:59:27.009Z,18.05
2023-02-11T00:59:38.977Z,18.40
2023-02-11T00:59:50.926Z,18.42
2023-02-11T01:00:05.104Z,18.33
2023-02-11T01:00:17.293Z,18.15
2023-02-11T01:00:29.274Z,17.98
2023-02-11T01:00:41.209Z,17.55
2023-02-11T01:00:54.900Z,17.50
2023-02-11T01:01:07.698Z,16.60
2023-02-11T01:01:19.847Z,16.92
2023-02-11T01:01:31.945Z,17.40
2023-02-11T01:01:43.854Z,17.27
2023-02-11T01:01:55.889Z,16.63
2023-02-11T01:02:07.792Z,17.10
2023-02-11T01:02:19.715Z,16.77
2023-02-11T01:02:31.768Z,16.30
2023-02-11T01:02:43.716Z,16.27
2023-02-11T01:02:55.951Z,16.50
2023-02-11T01:03:07.900Z,16.40
2023-02-11T01:03:19.870Z,16.27
2023-02-11T01:03:31.878Z,16.15
2023-02-11T01:03:43.940Z,15.80
2023-02-11T01:03:55.881Z,15.02
2023-02-11T01:04:07.835Z,15.18
2023-02-11T01:04:19.798Z,15.43
2023-02-11T01:04:31.734Z,15.27
2023-02-11T01:04:43.637Z,15.15
2023-02-11T01:04:55.580Z,15.13
2023-02-11T01:05:08.177Z,15.00
2023-02-11T01:05:21.386Z,14.85
2023-02-11T01:05:33.585Z,14.32
2023-02-11T01:05:45.629Z,14.65
2023-02-11T01:05:57.545Z,15.23
2023-02-11T01:06:10.135Z,15.55
2023-02-11T01:06:22.122Z,15.65
2023-02-11T01:06:34.118Z,15.45
2023-02-11T01:06:46.069Z,15.75
2023-02-11T01:06:57.994Z,16.10
2023-02-11T01:07:09.931Z,16.23
2023-02-11T01:07:21.901Z,15.95
2023-02-11T01:07:33.869Z,16.05
2023-02-11T01:07:46.039Z,16.33
2023-02-11T01:07:58.493Z,16.17
2023-02-11T01:08:10.484Z,16.10
2023-02-11T01:08:22.842Z,16.45
2023-02-11T01:08:34.925Z,17.15
2023-02-11T01:08:46.867Z,17.25
2023-02-11T01:08:58.853Z,17.40
2023-02-11T01:09:10.818Z,17.25
2023-02-11T01:09:22.812Z,17.25
2023-02-11T01:09:34.741Z,17.13
2023-02-11T01:09:46.665Z,17.38
2023-02-11T01:09:58.639Z,17.55
2023-02-11T01:10:11.643Z,17.45
2023-02-11T01:10:23.657Z,16.90
2023-02-11T01:10:35.621Z,17.17
2023-02-11T01:11:12.047Z,17.83
2023-02-11T01:11:24.162Z,16.85
2023-02-11T01:11:36.293Z,16.90
2023-02-11T01:11:48.325Z,17.02
2023-02-11T01:12:00.442Z,17.33
2023-02-11T01:12:12.432Z,17.17
2023-02-11T01:12:24.851Z,16.92
2023-02-11T01:12:36.984Z,16.98
2023-02-11T01:12:48.924Z,17.00
2023-02-11T01:13:01.722Z,16.80
2023-02-11T01:13:13.718Z,16.45
2023-02-11T01:13:27.110Z,16.45
2023-02-11T01:13:39.283Z,16.85
2023-02-11T01:13:51.243Z,16.83
2023-02-11T01:14:03.574Z,16.80
2023-02-11T01:14:15.630Z,16.00
2023-02-11T01:14:27.620Z,16.42
2023-02-11T01:14:39.549Z,16.58
2023-02-11T01:14:51.935Z,16.60
2023-02-11T01:15:06.378Z,16.60
2023-02-11T01:15:19.806Z,16.52
2023-02-11T01:15:32.288Z,16.88
2023-02-11T01:15:44.285Z,16.85
2023-02-11T01:15:57.381Z,16.63
2023-02-11T01:16:10.810Z,16.83
2023-02-11T01:16:22.867Z,16.90
2023-02-11T01:16:34.857Z,16.63
2023-02-11T01:16:46.780Z,16.55
2023-02-11T01:16:58.691Z,16.52
2023-02-11T01:17:10.713Z,16.70
2023-02-11T01:17:23.277Z,16.45
2023-02-11T01:17:36.113Z,16.52
2023-02-11T01:17:49.985Z,17.20
2023-02-11T01:18:01.938Z,16.65
2023-02-11T01:18:13.893Z,16.50
2023-02-11T01:18:27.060Z,16.40
2023-02-11T01:18:39.477Z,16.65
2023-02-11T01:18:51.432Z,16.95
2023-02-11T01:19:03.458Z,17.48
2023-02-11T01:19:15.368Z,16.65
2023-02-11T01:19:27.255Z,16.30
2023-02-11T01:19:39.441Z,16.27
2023-02-11T01:19:51.400Z,16.75
2023-02-11T01:20:06.404Z,16.58
2023-02-11T01:20:22.399Z,16.33
2023-02-11T01:20:34.373Z,16.23
2023-02-11T01:20:46.462Z,16.10
2023-02-11T01:20:58.402Z,16.02
2023-02-11T01:21:11.005Z,16.38
2023-02-11T01:21:22.994Z,16.80
2023-02-11T01:21:35.037Z,17.20
2023-02-11T01:21:46.970Z,17.42
2023-02-11T01:21:58.984Z,17.20
2023-02-11T01:22:10.967Z,16.92
2023-02-11T01:22:22.955Z,17.33
2023-02-11T01:22:37.334Z,17.10
2023-02-11T01:22:49.295Z,17.27
2023-02-11T01:23:01.199Z,17.10
2023-02-11T01:23:13.957Z,17.10
2023-02-11T01:23:26.226Z,16.67
2023-02-11T01:23:38.186Z,16.83
2023-02-11T01:23:50.149Z,16.85
2023-02-11T01:24:02.102Z,16.90
2023-02-11T01:24:14.124Z,16.60
2023-02-11T01:24:26.053Z,16.90
2023-02-11T01:24:38.054Z,17.17
2023-02-11T01:24:49.946Z,17.83
2023-02-11T01:25:01.838Z,18.02
2023-02-11T01:25:13.801Z,18.05
2023-02-11T01:25:25.738Z,17.42
2023-02-11T01:25:37.654Z,16.92
2023-02-11T01:25:52.812Z,16.58
2023-02-11T01:26:05.453Z,16.30
2023-02-11T01:26:17.381Z,16.83
2023-02-11T01:26:29.411Z,16.85
2023-02-11T01:26:41.385Z,17.50
2023-02-11T01:26:53.332Z,17.17
2023-02-11T01:27:05.369Z,16.67
2023-02-11T01:27:17.364Z,16.13
2023-02-11T01:27:29.286Z,16.25
2023-02-11T01:27:41.392Z,16.25
2023-02-11T01:27:53.348Z,16.27
2023-02-11T01:28:05.652Z,16.08
2023-02-11T01:28:22.054Z,16.00
2023-02-11T01:28:34.109Z,16.13
2023-02-11T01:28:46.124Z,15.80
2023-02-11T01:29:00.029Z,15.88
2023-02-11T01:29:12.014Z,16.17
2023-02-11T01:29:24.139Z,16.27
2023-02-11T01:29:36.095Z,15.75
2023-02-11T01:29:48.007Z,15.25
2023-02-11T01:30:00.201Z,15.52
2023-02-11T01:30:13.967Z,15.73
2023-02-11T01:30:26.077Z,16.27
2023-02-11T01:30:37.987Z,16.17
2023-02-11T01:30:50.621Z,16.10
2023-02-11T01:31:03.424Z,15.85
2023-02-11T01:31:15.488Z,16.02
2023-02-11T01:31:27.717Z,15.75
2023-02-11T01:31:39.826Z,15.60
2023-02-11T01:31:52.627Z,15.40
2023-02-11T01:32:04.818Z,15.43
2023-02-11T01:32:16.861Z,15.10
2023-02-11T01:32:28.834Z,15.35
2023-02-11T01:32:40.889Z,15.73
2023-02-11T01:32:52.837Z,16.10
2023-02-11T01:33:04.754Z,15.98
2023-02-11T01:33:17.176Z,16.73
2023-02-11T01:33:29.477Z,16.58
2023-02-11T01:33:41.788Z,16.52
2023-02-11T01:33:53.706Z,16.10
2023-02-11T01:34:06.696Z,15.98
2023-02-11T01:34:18.647Z,15.98
2023-02-11T01:34:30.774Z,15.65
2023-02-11T01:34:42.681Z,15.93
2023-02-11T01:34:54.959Z,16.42
2023-02-11T01:35:07.489Z,16.20
2023-02-11T01:35:19.452Z,15.90
2023-02-11T01:35:31.402Z,15.93
2023-02-11T01:35:44.579Z,16.20
2023-02-11T01:36:00.575Z,16.13
2023-02-11T01:36:13.056Z,16.20
2023-02-11T01:36:25.100Z,16.65
2023-02-11T01:36:37.322Z,16.95
2023-02-11T01:36:49.279Z,16.83
2023-02-11T01:37:01.240Z,16.98
2023-02-11T01:37:13.227Z,16.95
2023-02-11T01:37:26.115Z,17.27
2023-02-11T01:37:38.077Z,17.30
2023-02-11T01:37:49.986Z,16.23
2023-02-11T01:38:02.079Z,16.00
2023-02-11T01:38:17.502Z,16.05
2023-02-11T01:38:29.798Z,16.27
2023-02-11T01:38:41.851Z,16.73
2023-02-11T01:38:53.752Z,16.50
2023-02-11T01:39:05.726Z,16.42
2023-02-11T01:39:17.763Z,16.27
2023-02-11T01:39:33.227Z,16.38
2023-02-11T01:39:45.179Z,16.60
2023-02-11T01:39:57.110Z,17.10
2023-02-11T01:40:14.155Z,16.75
2023-02-11T01:40:26.112Z,16.52
2023-02-11T01:40:38.033Z,16.45
2023-02-11T01:40:52.976Z,16.15
2023-02-11T01:41:10.857Z,16.58
2023-02-11T01:41:22.773Z,17.05
2023-02-11T01:41:35.805Z,16.88
2023-02-11T01:41:47.745Z,16.80
2023-02-11T01:41:59.656Z,17.80
2023-02-11T01:42:16.089Z,17.92
2023-02-11T01:42:28.690Z,17.45
2023-02-11T01:42:41.172Z,17.50
2023-02-11T01:42:53.082Z,17.30
2023-02-11T01:43:05.357Z,17.17
2023-02-11T01:43:17.752Z,17.17
2023-02-11T01:43:34.506Z,17.27
2023-02-11T01:43:49.280Z,17.65
2023-02-11T01:44:22.815Z,17.90
2023-02-11T01:44:38.241Z,16.63
2023-02-11T01:44:52.289Z,16.95
2023-02-11T01:45:42.493Z,16.88
2023-02-11T01:46:17.851Z,16.65
2023-02-11T01:46:36.211Z,16.38
2023-02-11T01:46:48.333Z,16.27
2023-02-11T01:47:01.343Z,16.25
2023-02-11T01:47:13.306Z,15.90
2023-02-11T01:47:25.377Z,16.25
2023-02-11T01:47:37.299Z,16.23
2023-02-11T01:47:49.181Z,16.75
2023-02-11T01:48:02.417Z,16.75
2023-02-11T01:48:22.578Z,16.38
2023-02-11T01:48:38.638Z,16.08
2023-02-11T01:48:55.542Z,15.32
2023-02-11T01:49:12.405Z,14.75
2023-02-11T01:49:38.476Z,14.77
2023-02-11T01:49:57.356Z,14.13
2023-02-11T01:50:09.482Z,13.63
2023-02-11T01:50:21.410Z,13.85
2023-02-11T01:50:34.098Z,13.52
2023-02-11T01:50:50.495Z,13.27
2023-02-11T01:51:21.226Z,13.18
2023-02-11T01:51:39.149Z,13.65
2023-02-11T01:51:53.750Z,13.57
2023-02-11T01:52:30.423Z,13.65
2023-02-11T01:52:43.548Z,13.70
2023-02-11T01:53:15.566Z,13.40
2023-02-11T01:53:51.033Z,12.98
2023-02-11T01:54:24.275Z,12.27
2023-02-11T01:55:02.784Z,13.25
2023-02-11T01:55:33.595Z,12.48
2023-02-11T01:56:04.376Z,11.90
2023-02-11T01:56:36.684Z,12.35
2023-02-11T01:57:10.632Z,12.27
2023-02-11T01:57:26.407Z,12.02
2023-02-11T01:57:41.465Z,11.73
2023-02-11T01:57:56.986Z,12.02
2023-02-11T01:58:09.000Z,12.57
2023-02-11T01:58:21.114Z,12.75
2023-02-11T01:58:38.771Z,13.18
2023-02-11T01:58:51.943Z,12.98
2023-02-11T01:59:12.671Z,12.57
2023-02-11T01:59:30.427Z,12.68
2023-02-11T01:59:56.189Z,12.55
2023-02-11T02:00:24.086Z,12.23
2023-02-11T02:00:38.813Z,11.60
2023-02-11T02:00:50.932Z,12.23
2023-02-11T02:01:06.872Z,12.40
2023-02-11T02:01:25.545Z,12.13
2023-02-11T02:01:39.444Z,12.43
2023-02-11T02:02:00.628Z,12.30
2023-02-11T02:02:15.163Z,12.75
2023-02-11T02:02:37.324Z,12.65
2023-02-11T02:02:58.662Z,12.35
2023-02-11T02:03:20.154Z,12.57
2023-02-11T02:03:36.627Z,12.43
2023-02-11T02:03:56.304Z,11.85
2023-02-11T02:04:10.230Z,11.85
2023-02-11T02:04:27.274Z,11.95
2023-02-11T02:04:46.585Z,11.85
2023-02-11T02:05:30.528Z,12.23
2023-02-11T02:05:51.778Z,12.13
2023-02-11T02:06:10.933Z,12.43
2023-02-11T02:06:29.866Z,12.73
2023-02-11T02:06:52.833Z,12.60
2023-02-11T02:07:17.185Z,11.88
2023-02-11T02:07:37.244Z,12.10
2023-02-11T02:08:07.214Z,12.27
2023-02-11T02:08:35.332Z,12.10
2023-02-11T02:08:56.497Z,11.75
2023-02-11T02:09:16.998Z,11.85
2023-02-11T02:09:33.095Z,11.88
2023-02-11T02:09:55.857Z,12.48
2023-02-11T02:10:13.917Z,12.68
2023-02-11T02:10:28.053Z,12.32
2023-02-11T02:10:46.345Z,11.93
2023-02-11T02:11:00.878Z,12.02
2023-02-11T02:11:13.024Z,12.00
2023-02-11T02:11:26.213Z,12.30
2023-02-11T02:11:38.276Z,12.02
2023-02-11T02:11:50.750Z,11.90
2023-02-11T02:12:02.761Z,11.57
2023-02-11T02:12:14.710Z,11.85
2023-02-11T02:12:26.636Z,11.85
2023-02-11T02:12:38.676Z,12.02
2023-02-11T02:12:55.230Z,12.00
2023-02-11T02:13:09.308Z,12.07
2023-02-11T02:13:21.224Z,12.02
2023-02-11T02:13:35.304Z,12.30
2023-02-11T02:13:47.268Z,12.13
2023-02-11T02:14:01.613Z,12.15
2023-02-11T02:14:13.576Z,12.13
2023-02-11T02:14:26.556Z,12.05
2023-02-11T02:14:40.431Z,12.45
2023-02-11T02:14:52.359Z,12.63
2023-02-11T02:15:31.874Z,12.35
2023-02-11T02:16:12.298Z,12.35
2023-02-11T02:16:31.460Z,12.65
2023-02-11T02:16:44.657Z,12.35
2023-02-11T02:16:56.693Z,12.30
2023-02-11T02:17:26.662Z,12.02
2023-02-11T02:17:50.938Z,12.48
2023-02-11T02:18:32.889Z,12.30
2023-02-11T02:19:03.357Z,11.90
2023-02-11T02:19:37.140Z,12.15
2023-02-11T02:20:19.663Z,11.93
2023-02-11T02:21:16.348Z,12.63
2023-02-11T02:21:46.330Z,12.73
2023-02-11T02:22:19.714Z,12.95
2023-02-11T02:22:37.341Z,13.43
2023-02-11T02:23:04.270Z,13.23
2023-02-11T02:23:26.473Z,14.40
2023-02-11T02:24:01.034Z,14.88
2023-02-11T02:24:34.498Z,13.77
2023-02-11T02:25:17.516Z,13.45
2023-02-11T02:25:44.225Z,12.90
2023-02-11T02:26:21.885Z,12.85
2023-02-11T02:26:45.756Z,13.13
2023-02-11T02:27:18.792Z,12.82
2023-02-11T02:28:14.468Z,13.63
2023-02-11T02:28:58.447Z,13.73
2023-02-11T02:29:28.677Z,12.80
2023-02-11T02:30:02.174Z,13.82
2023-02-11T02:30:28.807Z,12.98
2023-02-11T02:30:53.207Z,12.13
2023-02-11T02:31:07.986Z,12.65
2023-02-11T02:31:38.854Z,13.13
2023-02-11T02:32:12.622Z,12.80
2023-02-11T02:32:36.386Z,13.00
2023-02-11T02:33:22.523Z,12.65
2023-02-11T02:33:55.631Z,12.60
2023-02-11T02:34:20.794Z,12.57
2023-02-11T02:34:44.530Z,13.02
2023-02-11T02:35:09.576Z,12.70
2023-02-11T02:35:30.288Z,12.82
2023-02-11T02:35:59.048Z,13.10
2023-02-11T02:36:46.565Z,12.73
2023-02-11T02:37:12.140Z,12.50
2023-02-11T02:37:37.657Z,12.80
2023-02-11T02:38:11.095Z,12.75
2023-02-11T02:38:35.493Z,13.23
2023-02-11T02:38:55.578Z,13.95
2023-02-11T02:39:21.365Z,13.15
2023-02-11T02:39:36.048Z,12.32
2023-02-11T02:39:50.216Z,12.48
2023-02-11T02:40:09.096Z,12.35
2023-02-11T02:40:30.182Z,12.48
2023-02-11T02:40:57.847Z,13.35
2023-02-11T02:41:13.425Z,12.50
2023-02-11T02:41:30.461Z,13.05
2023-02-11T02:41:43.803Z,12.60
2023-02-11T02:41:56.794Z,12.68
2023-02-11T02:42:09.407Z,12.88
2023-02-11T02:42:22.301Z,12.45
2023-02-11T02:42:34.554Z,12.55
2023-02-11T02:42:47.870Z,12.23
2023-02-11T02:43:02.084Z,12.10
2023-02-11T02:43:15.654Z,12.05
2023-02-11T02:43:29.213Z,12.55
2023-02-11T02:43:45.120Z,12.93
2023-02-11T02:43:57.309Z,12.88
2023-02-11T02:44:09.389Z,12.40
2023-02-11T02:44:21.413Z,12.40
2023-02-11T02:44:33.954Z,12.70
2023-02-11T02:44:52.952Z,12.85
2023-02-11T02:45:07.219Z,12.43
2023-02-11T02:45:19.600Z,12.38
2023-02-11T02:45:32.795Z,12.43
2023-02-11T02:45:44.907Z,12.27
2023-02-11T02:46:17.724Z,11.98
2023-02-11T02:46:32.119Z,12.65
2023-02-11T02:46:44.387Z,12.68
2023-02-11T02:46:56.710Z,12.65
2023-02-11T02:47:08.703Z,12.65
2023-02-11T02:47:20.706Z,12.55
2023-02-11T02:47:35.130Z,12.43
2023-02-11T02:47:47.034Z,12.70
2023-02-11T02:47:59.016Z,12.85
2023-02-11T02:48:31.252Z,12.88
2023-02-11T02:48:43.704Z,13.23
2023-02-11T02:48:56.682Z,12.63
2023-02-11T02:49:16.206Z,12.13
2023-02-11T02:49:28.155Z,12.57
2023-02-11T02:49:40.054Z,12.70
2023-02-11T02:49:52.032Z,12.52
2023-02-11T02:50:06.550Z,12.77
2023-02-11T02:50:25.186Z,12.88
2023-02-11T02:50:37.968Z,12.88
2023-02-11T02:50:57.263Z,12.77
2023-02-11T02:51:27.243Z,12.70
2023-02-11T02:52:10.192Z,11.98
2023-02-11T02:52:55.286Z,12.68
2023-02-11T02:53:36.399Z,12.25
2023-02-11T02:54:18.945Z,12.90
2023-02-11T02:54:53.582Z,12.70
2023-02-11T02:55:39.357Z,12.15
2023-02-11T02:56:07.552Z,13.50
2023-02-11T02:56:45.908Z,12.75
2023-02-11T02:57:20.601Z,12.50
2023-02-11T02:57:37.137Z,12.70
2023-02-11T02:57:58.661Z,12.50
2023-02-11T02:58:19.243Z,12.10
2023-02-11T02:58:46.981Z,12.77
2023-02-11T02:59:20.217Z,12.50
2023-02-11T03:00:08.705Z,12.63
2023-02-11T03:00:32.663Z,12.98
2023-02-11T03:00:58.461Z,12.52
2023-02-11T03:01:40.342Z,12.23
2023-02-11T03:02:10.910Z,12.85
2023-02-11T03:02:32.006Z,12.73
2023-02-11T03:02:49.996Z,12.32
2023-02-11T03:03:10.088Z,12.63
2023-02-11T03:03:49.334Z,12.93
2023-02-11T03:04:04.308Z,13.00
2023-02-11T03:04:29.376Z,13.20
2023-02-11T03:04:55.044Z,12.48
2023-02-11T03:05:18.654Z,12.18
2023-02-11T03:05:52.427Z,12.10
2023-02-11T03:06:42.343Z,12.20
2023-02-11T03:07:23.388Z,12.25
2023-02-11T03:07:47.054Z,12.75
2023-02-11T03:08:08.378Z,12.57
2023-02-11T03:08:38.206Z,12.80
2023-02-11T03:09:11.388Z,12.77
2023-02-11T03:09:27.568Z,12.40
2023-02-11T03:09:52.963Z,12.60
2023-02-11T03:10:10.898Z,12.98
2023-02-11T03:10:30.289Z,12.00
2023-02-11T03:10:45.699Z,11.90
2023-02-11T03:11:00.524Z,12.38
2023-02-11T03:11:17.494Z,12.68
2023-02-11T03:11:29.722Z,12.70
2023-02-11T03:11:41.732Z,12.48
2023-02-11T03:11:53.949Z,12.60
2023-02-11T03:12:07.699Z,13.00
2023-02-11T03:12:21.778Z,12.88
2023-02-11T03:12:36.302Z,13.10
2023-02-11T03:12:49.554Z,12.70
2023-02-11T03:13:03.492Z,12.48
2023-02-11T03:13:17.975Z,12.82
2023-02-11T03:13:33.879Z,12.73
2023-02-11T03:13:48.423Z,12.77
2023-02-11T03:14:03.367Z,12.75
2023-02-11T03:14:18.713Z,12.40
2023-02-11T03:14:32.259Z,12.02
2023-02-11T03:14:45.309Z,12.20
2023-02-11T03:14:59.265Z,12.43
2023-02-11T03:15:13.130Z,12.85
2023-02-11T03:15:28.041Z,13.43
2023-02-11T03:15:45.565Z,13.48
2023-02-11T03:16:03.375Z,12.88
2023-02-11T03:16:21.054Z,12.55
2023-02-11T03:16:38.971Z,12.65
2023-02-11T03:16:52.146Z,12.40
2023-02-11T03:17:06.017Z,12.32
2023-02-11T03:17:19.162Z,12.90
2023-02-11T03:17:34.172Z,12.75
2023-02-11T03:17:48.642Z,12.50
2023-02-11T03:18:03.561Z,12.45
2023-02-11T03:18:18.881Z,12.70
2023-02-11T03:18:35.935Z,13.00
2023-02-11T03:18:55.683Z,12.55
2023-02-11T03:19:15.481Z,12.50
2023-02-11T03:19:34.383Z,12.70
2023-02-11T03:19:50.541Z,13.18
2023-02-11T03:20:06.791Z,13.25
2023-02-11T03:20:22.013Z,13.15
2023-02-11T03:20:37.097Z,12.63
2023-02-11T03:20:53.244Z,12.32
2023-02-11T03:21:08.178Z,12.80
2023-02-11T03:21:21.430Z,13.00
2023-02-11T03:21:36.501Z,12.52
2023-02-11T03:21:51.827Z,12.50
2023-02-11T03:22:09.699Z,12.10
2023-02-11T03:22:34.103Z,12.43
2023-02-11T03:22:48.667Z,12.98
2023-02-11T03:23:35.672Z,13.05